Time;durP1;ratioP1;P1;durP2;ratioP2;P2;SDS_P1;SDS_P2;PMS_P1;PMS_P2;Temp;Humidity;BMP_temperature;BMP_pressure;BME280_temperature;BME280_humidity;BME280_pressure;Samples;Min_cycle;Max_cycle;Signal;HPM_P1;HPM_P2
2021/12/17 00:00:46;;;;;;;119.80;107.97;;;9.20;99.90;;;;;;5054410;28;20475;-75
2021/12/17 00:03:21;;;;;;;123.65;111.22;;;9.20;99.90;;;;;;5054357;28;20132;-74
2021/12/17 00:06:07;;;;;;;124.50;111.82;;;9.20;99.90;;;;;;5054408;28;20069;-74
2021/12/17 00:08:35;;;;;;;124.90;111.78;;;9.20;99.90;;;;;;5053970;28;20049;-75
2021/12/17 00:11:04;;;;;;;124.63;111.57;;;9.20;99.90;;;;;;5034137;28;20057;-74
2021/12/17 00:13:32;;;;;;;127.50;113.88;;;9.20;99.90;;;;;;5034440;28;20052;-75
2021/12/17 00:15:59;;;;;;;128.18;114.20;;;9.20;99.90;;;;;;5034410;28;20041;-74
2021/12/17 00:18:33;;;;;;;126.05;112.78;;;9.10;99.90;;;;;;5017613;28;20586;-74
2021/12/17 00:48:51;;;;;;;126.53;112.68;;;9.10;99.90;;;;;;5033564;28;20045;-74
2021/12/17 00:51:55;;;;;;;125.78;112.15;;;9.10;99.90;;;;;;5017231;28;20109;-74
2021/12/17 00:54:31;;;;;;;126.57;113.32;;;9.10;99.90;;;;;;5033432;28;20046;-75
2021/12/17 00:57:03;;;;;;;126.90;113.30;;;9.10;99.90;;;;;;5034715;28;20054;-74
2021/12/17 00:59:30;;;;;;;125.38;112.07;;;9.10;99.90;;;;;;5050366;28;20085;-75
2021/12/17 01:02:00;;;;;;;126.03;112.78;;;9.10;99.90;;;;;;5017220;28;20504;-75
2021/12/17 01:04:27;;;;;;;127.88;114.28;;;9.20;99.90;;;;;;5017482;28;20050;-75
2021/12/17 01:06:54;;;;;;;127.05;113.45;;;9.10;99.90;;;;;;5033299;28;20137;-75
2021/12/17 01:09:25;;;;;;;126.55;113.30;;;9.20;99.90;;;;;;5050452;28;20062;-74
2021/12/17 01:11:52;;;;;;;127.35;113.70;;;9.20;99.90;;;;;;5028944;28;20053;-74
2021/12/17 01:14:33;;;;;;;126.65;113.32;;;9.20;99.90;;;;;;5033350;28;20046;-75
2021/12/17 01:17:32;;;;;;;126.50;112.95;;;9.20;99.90;;;;;;5042136;28;20072;-74
2021/12/17 01:20:25;;;;;;;127.53;113.22;;;9.20;99.90;;;;;;5033054;28;20133;-74
2021/12/17 01:23:11;;;;;;;129.32;115.20;;;9.20;99.90;;;;;;5033363;28;20050;-74
2021/12/17 01:35:29;;;;;;;126.50;113.10;;;9.20;99.90;;;;;;5016236;28;20053;-74
2021/12/17 01:43:50;;;;;;;128.73;114.18;;;9.20;99.90;;;;;;5016273;28;20507;-74
2021/12/17 01:46:21;;;;;;;127.82;114.25;;;9.20;99.90;;;;;;5016012;28;20052;-74
2021/12/17 01:49:04;;;;;;;128.38;114.35;;;9.20;99.90;;;;;;5034447;28;20045;-74
2021/12/17 01:59:44;;;;;;;126.00;112.40;;;9.20;99.90;;;;;;5031587;28;20566;-74
2021/12/17 02:02:12;;;;;;;124.88;111.85;;;9.20;99.90;;;;;;5049014;28;20054;-74
2021/12/17 02:04:41;;;;;;;125.40;111.82;;;9.20;99.90;;;;;;5032855;28;20084;-74
2021/12/17 02:07:08;;;;;;;125.78;112.35;;;9.20;99.90;;;;;;5032239;28;20496;-74
2021/12/17 02:29:46;;;;;;;120.28;107.57;;;9.30;99.90;;;;;;5052395;28;20048;-74
2021/12/17 02:32:14;;;;;;;122.07;109.40;;;9.30;99.90;;;;;;5035511;28;20133;-74
2021/12/17 02:35:01;;;;;;;123.75;110.78;;;9.30;99.90;;;;;;5034005;28;20100;-74
2021/12/17 02:37:32;;;;;;;121.50;108.82;;;9.30;99.90;;;;;;5052384;28;20488;-74
2021/12/17 02:45:48;;;;;;;122.95;110.20;;;9.30;99.90;;;;;;5035353;28;20041;-74
2021/12/17 02:48:17;;;;;;;121.05;108.70;;;9.30;99.90;;;;;;5035110;28;20046;-74
2021/12/17 02:50:46;;;;;;;123.05;110.35;;;9.30;99.90;;;;;;5038737;28;20133;-74
2021/12/17 02:53:16;;;;;;;122.13;109.43;;;9.30;99.90;;;;;;5038788;28;20113;-74
2021/12/17 02:55:48;;;;;;;122.60;110.28;;;9.30;99.90;;;;;;5055532;28;20120;-74
2021/12/17 02:58:16;;;;;;;120.63;108.43;;;9.30;99.90;;;;;;5038447;28;20050;-74
2021/12/17 03:00:44;;;;;;;121.55;109.10;;;9.30;99.90;;;;;;5055466;28;20124;-74
2021/12/17 03:03:13;;;;;;;122.38;110.15;;;9.30;99.90;;;;;;5056551;28;20521;-74
2021/12/17 03:05:42;;;;;;;123.45;111.03;;;9.30;99.90;;;;;;5055017;28;20053;-74
2021/12/17 03:08:13;;;;;;;121.63;109.43;;;9.30;99.90;;;;;;5038383;28;20053;-74
2021/12/17 03:10:43;;;;;;;121.53;109.38;;;9.30;99.90;;;;;;5035426;28;20145;-74
2021/12/17 03:13:11;;;;;;;122.80;110.35;;;9.30;99.90;;;;;;5018922;28;20061;-75
2021/12/17 03:15:45;;;;;;;122.32;110.00;;;9.30;99.90;;;;;;5035066;28;20081;-74
2021/12/17 03:23:43;;;;;;;121.07;108.75;;;9.30;99.90;;;;;;5035274;28;20033;-74
2021/12/17 03:26:18;;;;;;;121.70;109.30;;;9.30;99.90;;;;;;5023383;28;20046;-74
2021/12/17 03:28:48;;;;;;;121.78;109.57;;;9.30;99.90;;;;;;5052886;28;20050;-74
2021/12/17 03:31:16;;;;;;;122.07;109.82;;;9.30;99.90;;;;;;5052125;28;20077;-75
2021/12/17 03:33:45;;;;;;;121.90;109.72;;;9.30;99.90;;;;;;5050938;28;20057;-75
2021/12/17 03:36:15;;;;;;;122.63;109.95;;;9.30;99.90;;;;;;5056014;28;20053;-75
2021/12/17 03:38:44;;;;;;;121.20;109.22;;;9.30;99.90;;;;;;5034297;28;20049;-74
2021/12/17 03:41:18;;;;;;;121.43;109.55;;;9.40;99.90;;;;;;5048991;28;20133;-75
2021/12/17 03:43:59;;;;;;;120.75;108.70;;;9.40;99.90;;;;;;5051256;28;20804;-74
2021/12/17 03:46:48;;;;;;;120.50;108.53;;;9.40;99.90;;;;;;5044275;28;20053;-74
2021/12/17 03:49:17;;;;;;;120.55;108.80;;;9.30;99.90;;;;;;5034205;28;20053;-74
2021/12/17 03:51:50;;;;;;;122.70;110.18;;;9.40;99.90;;;;;;5052385;28;20504;-74
2021/12/17 03:54:19;;;;;;;121.45;109.63;;;9.40;99.90;;;;;;5034446;28;20077;-75
2021/12/17 03:56:47;;;;;;;123.03;110.97;;;9.40;99.90;;;;;;5053603;28;20046;-74
2021/12/17 03:59:15;;;;;;;121.05;109.05;;;9.50;99.90;;;;;;5034901;28;20041;-74
2021/12/17 04:01:43;;;;;;;122.75;110.50;;;9.40;99.90;;;;;;5036368;28;20045;-74
2021/12/17 04:04:10;;;;;;;120.97;109.00;;;9.40;99.90;;;;;;5032675;28;20050;-74
2021/12/17 04:06:39;;;;;;;121.80;109.57;;;9.50;99.90;;;;;;5037412;28;20041;-74
2021/12/17 04:09:34;;;;;;;120.45;108.30;;;9.50;99.90;;;;;;5036392;28;20046;-74
2021/12/17 04:12:15;;;;;;;120.82;108.82;;;9.50;99.90;;;;;;5047296;28;20053;-74
2021/12/17 04:15:04;;;;;;;121.25;109.35;;;9.50;99.90;;;;;;5051743;28;20046;-74
2021/12/17 04:17:40;;;;;;;119.80;107.97;;;9.50;99.90;;;;;;5052038;28;20049;-74
2021/12/17 04:20:09;;;;;;;120.85;109.00;;;9.50;99.90;;;;;;5055728;28;20053;-75
2021/12/17 04:22:36;;;;;;;119.63;107.93;;;9.50;99.90;;;;;;5033790;28;20049;-74
2021/12/17 04:25:04;;;;;;;120.45;108.60;;;9.50;99.90;;;;;;5050606;28;20060;-74
2021/12/17 04:27:32;;;;;;;120.85;108.95;;;9.50;99.90;;;;;;5050262;28;20804;-74
2021/12/17 04:29:59;;;;;;;122.03;110.13;;;9.50;99.90;;;;;;5038335;28;20080;-74
2021/12/17 04:32:28;;;;;;;122.35;110.18;;;9.50;99.90;;;;;;5040100;28;20056;-74
2021/12/17 04:34:55;;;;;;;123.30;111.00;;;9.50;99.90;;;;;;5028162;28;20053;-74
2021/12/17 04:37:29;;;;;;;124.82;112.57;;;9.50;99.90;;;;;;5066651;28;20104;-74
2021/12/17 04:40:00;;;;;;;124.28;112.00;;;9.50;99.90;;;;;;5068524;28;20053;-75
2021/12/17 04:42:43;;;;;;;125.63;113.20;;;9.50;99.90;;;;;;5067046;28;20131;-74
2021/12/17 04:45:11;;;;;;;124.32;112.13;;;9.50;99.90;;;;;;5066823;28;20046;-74
2021/12/17 04:59:03;;;;;;;120.63;108.23;;;9.40;99.90;;;;;;5032336;28;20048;-75
2021/12/17 05:01:31;;;;;;;122.70;110.63;;;9.40;99.90;;;;;;5032971;28;20049;-74
2021/12/17 05:03:59;;;;;;;123.03;110.97;;;9.40;99.90;;;;;;5050686;28;20057;-74
2021/12/17 05:06:29;;;;;;;121.78;109.70;;;9.40;99.90;;;;;;5042493;28;20458;-74
2021/12/17 05:09:07;;;;;;;125.07;112.78;;;9.40;99.90;;;;;;5062101;28;20064;-74
2021/12/17 05:18:14;;;;;;;120.50;108.63;;;9.40;99.90;;;;;;5037720;28;20049;-74
2021/12/17 05:20:01;;;;;;;120.95;108.82;;;9.40;99.90;;;;;;5031780;28;20073;-74
2021/12/17 05:22:30;;;;;;;121.32;109.28;;;9.40;99.90;;;;;;5051634;28;20064;-74
2021/12/17 05:24:58;;;;;;;122.40;110.40;;;9.40;99.90;;;;;;5035291;28;20073;-74
2021/12/17 05:27:25;;;;;;;121.07;109.15;;;9.40;99.90;;;;;;5051104;28;20076;-75
2021/12/17 05:30:00;;;;;;;121.35;109.65;;;9.40;99.90;;;;;;5045581;28;20045;-74
2021/12/17 05:32:27;;;;;;;122.85;110.85;;;9.40;99.90;;;;;;5049688;28;20057;-74
2021/12/17 05:35:01;;;;;;;122.75;110.55;;;9.40;99.90;;;;;;5033847;28;20052;-74
2021/12/17 05:37:28;;;;;;;120.22;108.45;;;9.50;99.90;;;;;;5033911;28;20050;-74
2021/12/17 05:39:55;;;;;;;124.03;112.03;;;9.50;99.90;;;;;;5051446;28;20061;-74
2021/12/17 05:42:23;;;;;;;122.20;110.30;;;9.50;99.90;;;;;;5050271;28;20450;-74
2021/12/17 05:45:09;;;;;;;119.60;107.97;;;9.50;99.90;;;;;;5035249;28;20116;-75
2021/12/17 05:47:36;;;;;;;120.78;109.05;;;9.50;99.90;;;;;;5046898;28;20049;-74
2021/12/17 05:50:06;;;;;;;121.10;109.30;;;9.50;99.90;;;;;;5033025;28;20050;-75
2021/12/17 05:52:33;;;;;;;121.25;109.60;;;9.50;99.90;;;;;;5034133;28;20132;-74
2021/12/17 05:55:01;;;;;;;120.75;109.25;;;9.50;99.90;;;;;;5037539;28;20562;-75
2021/12/17 05:57:28;;;;;;;122.53;110.82;;;9.50;99.90;;;;;;5056932;28;20049;-74
2021/12/17 05:59:55;;;;;;;123.82;112.03;;;9.50;99.90;;;;;;5051939;28;20048;-74
2021/12/17 06:02:23;;;;;;;119.28;107.55;;;9.50;99.90;;;;;;5048985;28;20061;-74
2021/12/17 06:04:54;;;;;;;118.45;107.00;;;9.50;99.90;;;;;;5049929;28;20140;-74
2021/12/17 06:07:29;;;;;;;119.85;108.22;;;9.50;99.90;;;;;;5049460;28;20045;-74
2021/12/17 06:10:03;;;;;;;120.57;108.75;;;9.50;99.90;;;;;;5069343;22;20043;-74
2021/12/17 06:12:35;;;;;;;121.78;109.88;;;9.50;99.90;;;;;;4986603;28;20050;-74
2021/12/17 06:15:05;;;;;;;121.40;109.30;;;9.50;99.90;;;;;;5008556;28;20058;-74
2021/12/17 06:17:32;;;;;;;124.65;112.15;;;9.50;99.90;;;;;;5007798;28;20126;-75
2021/12/17 06:20:00;;;;;;;123.03;110.93;;;9.40;99.90;;;;;;5023796;28;20054;-74
2021/12/17 06:22:28;;;;;;;123.00;110.88;;;9.40;99.90;;;;;;5007042;28;20051;-74
2021/12/17 06:25:00;;;;;;;121.85;109.75;;;9.40;99.90;;;;;;5007485;28;20083;-74
2021/12/17 06:27:28;;;;;;;119.97;108.30;;;9.40;99.90;;;;;;5010061;28;20118;-75
2021/12/17 06:29:57;;;;;;;122.45;110.28;;;9.40;99.90;;;;;;4987498;28;20054;-75
2021/12/17 06:32:25;;;;;;;122.68;110.50;;;9.30;99.90;;;;;;5008973;28;20056;-74
2021/12/17 06:34:53;;;;;;;121.97;109.85;;;9.30;99.90;;;;;;5002423;28;20049;-74
2021/12/17 06:37:21;;;;;;;121.80;109.60;;;9.30;99.90;;;;;;5010637;28;20081;-74
2021/12/17 06:39:50;;;;;;;121.30;109.25;;;9.30;99.90;;;;;;4991149;28;20046;-75
2021/12/17 06:42:18;;;;;;;124.32;111.45;;;9.30;99.90;;;;;;5008175;28;20360;-74
2021/12/17 06:44:47;;;;;;;122.47;110.20;;;9.20;99.90;;;;;;5027327;28;20730;-75
2021/12/17 06:47:26;;;;;;;121.75;109.65;;;9.20;99.90;;;;;;5010784;28;20052;-74
2021/12/17 06:50:00;;;;;;;121.97;109.82;;;9.20;99.90;;;;;;5011381;28;20046;-74
2021/12/17 07:11:50;;;;;;;121.05;108.95;;;9.10;99.90;;;;;;4967506;28;20889;-74
2021/12/17 07:17:22;;;;;;;124.15;111.55;;;9.10;99.90;;;;;;5022887;28;20046;-74
2021/12/17 07:22:47;;;;;;;118.47;106.90;;;9.10;99.90;;;;;;5025225;28;20109;-74
2021/12/17 07:28:44;;;;;;;120.82;108.50;;;9.10;99.90;;;;;;4983195;28;20046;-74
2021/12/17 07:34:00;;;;;;;121.38;109.45;;;9.00;99.90;;;;;;4990023;28;20050;-74
2021/12/17 07:38:36;;;;;;;122.57;110.40;;;9.00;99.90;;;;;;5013782;28;20057;-74
2021/12/17 07:39:48;;;;;;;121.22;109.03;;;9.00;99.90;;;;;;4987741;28;20066;-75
2021/12/17 07:42:22;;;;;;;122.65;110.30;;;9.00;99.90;;;;;;5028757;28;20515;-74
2021/12/17 07:45:07;;;;;;;125.75;112.97;;;9.00;99.90;;;;;;5003937;28;20047;-74
2021/12/17 07:47:47;;;;;;;120.30;108.22;;;9.00;99.90;;;;;;5022264;28;20139;-77
2021/12/17 07:50:23;;;;;;;120.47;108.43;;;9.00;99.90;;;;;;5019993;28;20117;-77
2021/12/17 07:53:04;;;;;;;119.88;108.00;;;9.00;99.90;;;;;;5000833;28;20051;-77
2021/12/17 07:55:39;;;;;;;121.35;109.45;;;9.00;99.90;;;;;;5019532;28;20108;-76
2021/12/17 07:58:09;;;;;;;119.97;107.90;;;8.90;99.90;;;;;;5003007;28;20051;-76
2021/12/17 08:00:41;;;;;;;120.60;108.72;;;8.90;99.90;;;;;;5022331;28;20062;-77
2021/12/17 08:03:08;;;;;;;124.32;111.90;;;8.90;99.90;;;;;;5022891;28;20579;-77
2021/12/17 08:05:48;;;;;;;122.43;110.10;;;8.90;99.90;;;;;;5016037;28;20682;-75
2021/12/17 08:08:15;;;;;;;120.93;108.82;;;8.90;99.90;;;;;;5010832;28;20488;-77
2021/12/17 08:10:47;;;;;;;121.45;109.20;;;8.90;99.90;;;;;;5013191;28;20062;-77
2021/12/17 08:13:20;;;;;;;122.93;110.55;;;8.90;99.90;;;;;;5008830;28;20043;-77
2021/12/17 08:16:04;;;;;;;121.68;109.70;;;8.90;99.90;;;;;;5015789;28;20058;-76
2021/12/17 08:18:47;;;;;;;121.57;109.50;;;8.90;99.90;;;;;;5029908;28;20051;-77
2021/12/17 08:24:38;;;;;;;120.63;108.80;;;8.90;99.90;;;;;;5007276;28;20050;-77
2021/12/17 08:27:22;;;;;;;119.20;107.28;;;8.90;99.90;;;;;;5014937;28;20068;-78
2021/12/17 08:29:57;;;;;;;118.07;106.38;;;8.90;99.90;;;;;;5021338;28;20047;-79
2021/12/17 08:32:51;;;;;;;118.85;107.25;;;8.90;99.90;;;;;;5002293;28;20138;-77
2021/12/17 08:35:20;;;;;;;119.75;107.72;;;8.90;99.90;;;;;;5038601;28;20483;-76
2021/12/17 08:37:48;;;;;;;117.93;106.30;;;8.90;99.90;;;;;;5013082;28;20879;-76
2021/12/17 08:40:16;;;;;;;117.47;106.10;;;8.90;99.90;;;;;;5012562;28;20083;-76
2021/12/17 08:42:50;;;;;;;118.63;106.82;;;8.90;99.90;;;;;;4994431;28;20145;-75
2021/12/17 08:45:18;;;;;;;120.20;108.38;;;8.90;99.90;;;;;;4997039;28;20381;-76
2021/12/17 08:47:45;;;;;;;118.00;106.40;;;9.00;99.90;;;;;;5012601;28;20528;-76
2021/12/17 08:50:18;;;;;;;119.07;107.30;;;9.00;99.90;;;;;;4997076;28;20133;-76
2021/12/17 08:52:46;;;;;;;119.78;108.28;;;9.00;99.90;;;;;;5013964;28;20492;-76
2021/12/17 08:55:14;;;;;;;121.55;109.82;;;9.00;99.90;;;;;;5012590;28;20050;-76
2021/12/17 08:57:42;;;;;;;119.93;108.43;;;9.00;99.90;;;;;;4993133;28;20047;-75
2021/12/17 09:00:13;;;;;;;119.78;108.10;;;9.00;99.90;;;;;;5021474;28;20046;-75
2021/12/17 09:02:59;;;;;;;119.05;107.18;;;9.00;99.90;;;;;;5008811;28;20567;-76
2021/12/17 09:05:40;;;;;;;120.30;108.50;;;9.00;99.90;;;;;;5015411;28;20051;-76
2021/12/17 09:08:09;;;;;;;121.05;109.28;;;9.00;99.90;;;;;;4993698;28;20051;-76
2021/12/17 09:10:47;;;;;;;120.93;109.18;;;9.00;99.90;;;;;;5003113;28;20113;-76
2021/12/17 09:13:16;;;;;;;118.82;107.25;;;9.00;99.90;;;;;;5009723;28;20528;-76
2021/12/17 09:15:45;;;;;;;124.95;113.15;;;9.10;99.90;;;;;;4995971;28;20054;-76
2021/12/17 09:18:20;;;;;;;124.25;112.45;;;9.10;99.90;;;;;;5016787;28;20046;-77
2021/12/17 09:20:59;;;;;;;125.97;113.90;;;9.10;99.90;;;;;;5013015;28;20086;-76
2021/12/17 09:23:47;;;;;;;122.82;110.82;;;9.00;99.90;;;;;;5005944;28;20051;-76
2021/12/17 09:26:16;;;;;;;122.50;110.72;;;9.10;99.90;;;;;;4998618;28;20499;-75
2021/12/17 09:28:44;;;;;;;123.70;111.93;;;9.10;99.90;;;;;;5012537;28;20113;-75
2021/12/17 09:31:12;;;;;;;125.32;113.43;;;9.10;99.90;;;;;;5012859;28;20189;-75
2021/12/17 09:33:39;;;;;;;124.82;112.72;;;9.10;99.90;;;;;;5014309;28;20109;-76
2021/12/17 09:36:09;;;;;;;123.75;112.20;;;9.10;99.90;;;;;;5013148;28;20137;-75
2021/12/17 09:38:36;;;;;;;124.13;112.25;;;9.20;99.90;;;;;;5014183;28;20505;-75
2021/12/17 09:41:04;;;;;;;122.03;110.00;;;9.10;99.90;;;;;;5010473;28;20061;-76
2021/12/17 09:43:32;;;;;;;123.55;111.65;;;9.20;99.90;;;;;;5012540;28;20082;-77
2021/12/17 09:46:01;;;;;;;126.95;114.78;;;9.10;99.90;;;;;;5019291;28;20879;-74
2021/12/17 09:48:28;;;;;;;119.53;107.93;;;9.20;99.90;;;;;;5011384;28;20046;-74
2021/12/17 09:50:56;;;;;;;120.07;108.35;;;9.20;99.90;;;;;;5012423;28;20048;-74
2021/12/17 09:53:25;;;;;;;123.18;111.40;;;9.20;99.90;;;;;;5004038;28;20050;-73
2021/12/17 09:55:52;;;;;;;118.40;107.05;;;9.20;99.90;;;;;;5013789;28;20068;-74
2021/12/17 09:58:19;;;;;;;119.25;107.68;;;9.20;99.90;;;;;;5011353;28;20043;-75
2021/12/17 10:00:46;;;;;;;120.70;109.00;;;9.20;99.90;;;;;;5011978;28;20129;-77
2021/12/17 10:03:13;;;;;;;119.47;108.07;;;9.20;99.90;;;;;;5012403;28;20054;-77
2021/12/17 10:05:41;;;;;;;120.35;108.78;;;9.20;99.90;;;;;;5012953;28;20054;-77
2021/12/17 10:08:12;;;;;;;116.78;105.38;;;9.30;99.90;;;;;;5029855;28;20050;-76
2021/12/17 10:10:43;;;;;;;118.47;107.18;;;9.30;99.90;;;;;;5032828;28;20077;-78
2021/12/17 10:13:12;;;;;;;120.22;108.72;;;9.30;99.90;;;;;;5021270;28;20106;-77
2021/12/17 10:15:41;;;;;;;119.28;107.78;;;9.30;99.90;;;;;;5020761;28;21584;-77
2021/12/17 10:18:09;;;;;;;119.68;108.40;;;9.30;99.90;;;;;;5017251;28;20054;-76
2021/12/17 10:20:41;;;;;;;118.82;107.32;;;9.40;99.90;;;;;;5018621;28;20056;-76
2021/12/17 10:23:11;;;;;;;117.85;106.55;;;9.40;99.90;;;;;;5016027;28;20109;-77
2021/12/17 10:25:42;;;;;;;117.03;105.85;;;9.40;99.90;;;;;;5020557;28;20050;-77
2021/12/17 10:28:10;;;;;;;119.32;107.80;;;9.40;99.90;;;;;;5021176;28;20073;-77
2021/12/17 10:30:39;;;;;;;117.35;105.95;;;9.40;99.90;;;;;;5006438;28;20153;-77
2021/12/17 10:33:07;;;;;;;122.07;110.60;;;9.40;99.90;;;;;;5021177;28;20054;-77
2021/12/17 10:35:38;;;;;;;119.85;108.47;;;9.50;99.90;;;;;;5026726;28;20046;-76
2021/12/17 10:38:08;;;;;;;119.60;108.22;;;9.50;99.90;;;;;;5017356;28;20059;-77
2021/12/17 10:40:39;;;;;;;117.57;106.38;;;9.50;99.90;;;;;;5042308;28;20432;-77
2021/12/17 10:43:16;;;;;;;118.97;107.68;;;9.50;99.90;;;;;;5016804;28;20647;-77
2021/12/17 10:45:57;;;;;;;117.65;106.40;;;9.50;99.90;;;;;;5018187;28;20054;-77
2021/12/17 10:48:28;;;;;;;118.88;107.53;;;9.60;99.90;;;;;;5017479;28;20101;-76
2021/12/17 10:51:02;;;;;;;122.18;110.68;;;9.50;99.90;;;;;;5014388;28;20050;-76
2021/12/17 10:53:30;;;;;;;118.70;107.20;;;9.60;99.90;;;;;;5017313;28;20055;-76
2021/12/17 10:55:57;;;;;;;120.00;108.47;;;9.60;99.90;;;;;;5019714;28;20125;-76
2021/12/17 10:58:27;;;;;;;118.65;107.45;;;9.60;99.90;;;;;;5020354;28;20144;-76
2021/12/17 11:01:01;;;;;;;118.93;107.45;;;9.60;99.90;;;;;;5019408;28;20046;-76
2021/12/17 11:03:29;;;;;;;117.88;106.70;;;9.60;99.90;;;;;;5020544;28;20054;-77
2021/12/17 11:05:56;;;;;;;118.30;107.05;;;9.60;99.90;;;;;;5018972;28;20051;-77
2021/12/17 11:08:34;;;;;;;120.55;109.05;;;9.60;99.90;;;;;;4994337;28;20113;-73
2021/12/17 11:11:08;;;;;;;118.47;107.20;;;9.70;99.90;;;;;;5014793;28;20102;-75
2021/12/17 11:13:38;;;;;;;125.65;114.05;;;9.70;99.90;;;;;;5013153;28;20059;-74
2021/12/17 11:16:05;;;;;;;118.72;107.32;;;9.70;99.90;;;;;;5012108;28;20061;-74
2021/12/17 11:18:32;;;;;;;119.25;107.82;;;9.70;99.90;;;;;;5012489;28;20052;-76
2021/12/17 11:21:00;;;;;;;119.32;108.13;;;9.70;99.90;;;;;;5015270;28;20141;-76
2021/12/17 11:23:32;;;;;;;118.65;107.35;;;9.70;99.90;;;;;;5029970;28;20061;-75
2021/12/17 11:25:59;;;;;;;118.03;106.80;;;9.70;99.90;;;;;;5014881;28;20101;-75
2021/12/17 11:28:27;;;;;;;117.75;106.65;;;9.80;99.90;;;;;;5013317;28;20057;-76
2021/12/17 11:30:55;;;;;;;117.45;106.38;;;9.80;99.90;;;;;;5013512;28;20046;-76
2021/12/17 11:33:23;;;;;;;117.20;106.07;;;9.80;99.90;;;;;;5014320;28;20082;-77
2021/12/17 11:35:51;;;;;;;119.45;108.15;;;9.80;99.90;;;;;;4941124;28;20082;-76
2021/12/17 11:38:25;;;;;;;118.38;107.07;;;9.80;99.90;;;;;;5013746;28;20515;-78
2021/12/17 11:40:55;;;;;;;117.57;106.28;;;9.80;99.90;;;;;;5015879;28;20046;-76
2021/12/17 11:43:49;;;;;;;116.60;105.60;;;9.80;99.90;;;;;;5015823;28;20054;-78
2021/12/17 11:46:22;;;;;;;116.97;105.80;;;9.90;99.90;;;;;;5014237;28;20131;-77
2021/12/17 11:48:52;;;;;;;117.20;105.97;;;9.90;99.90;;;;;;5014903;28;20160;-77
2021/12/17 11:51:23;;;;;;;116.57;105.55;;;9.90;99.90;;;;;;5026803;28;20069;-77
2021/12/17 11:54:02;;;;;;;117.72;106.43;;;9.90;99.90;;;;;;5016974;28;20480;-77
2021/12/17 11:56:43;;;;;;;121.97;110.68;;;9.90;99.90;;;;;;5013070;28;20050;-78
2021/12/17 11:59:27;;;;;;;117.20;106.30;;;9.90;99.90;;;;;;5009762;28;20142;-78
2021/12/17 12:02:01;;;;;;;117.25;106.22;;;9.90;99.90;;;;;;4999995;28;20583;-79
2021/12/17 12:04:44;;;;;;;117.22;106.03;;;10.00;99.90;;;;;;5014909;28;20567;-77
2021/12/17 12:07:13;;;;;;;116.18;105.28;;;10.00;99.90;;;;;;5010385;28;20884;-76
2021/12/17 12:09:57;;;;;;;115.90;104.80;;;10.00;99.90;;;;;;5016011;28;20061;-78
2021/12/17 12:12:27;;;;;;;117.10;106.10;;;10.00;99.90;;;;;;5014337;28;20086;-78
2021/12/17 12:14:55;;;;;;;116.68;105.75;;;10.00;99.90;;;;;;5015995;28;20137;-78
2021/12/17 12:18:07;;;;;;;116.53;105.53;;;10.10;99.90;;;;;;5002517;28;20054;-76
2021/12/17 12:20:53;;;;;;;118.53;107.38;;;10.10;99.90;;;;;;4935117;29;20082;-82
2021/12/17 12:23:23;;;;;;;117.88;106.78;;;10.10;99.90;;;;;;5013025;28;20054;-80
2021/12/17 12:26:41;;;;;;;116.65;105.78;;;10.10;99.90;;;;;;5014126;28;20058;-83
2021/12/17 12:29:14;;;;;;;117.05;106.18;;;10.10;99.90;;;;;;5014471;28;20558;-79
2021/12/17 12:31:53;;;;;;;117.05;105.97;;;10.10;99.90;;;;;;4997911;28;20125;-79
2021/12/17 12:34:29;;;;;;;117.45;106.47;;;10.10;99.90;;;;;;5014376;28;20073;-80
2021/12/17 12:36:58;;;;;;;117.68;106.72;;;10.20;99.90;;;;;;5014539;28;20128;-78
2021/12/17 12:39:28;;;;;;;117.75;106.75;;;10.20;99.90;;;;;;5014412;28;20062;-80
2021/12/17 12:42:02;;;;;;;118.72;107.80;;;10.20;99.90;;;;;;5014434;28;20105;-78
2021/12/17 12:45:10;;;;;;;116.85;105.85;;;10.20;99.90;;;;;;5014055;28;20519;-79
2021/12/17 12:47:48;;;;;;;118.57;107.50;;;10.20;99.90;;;;;;5030055;28;20058;-79
2021/12/17 12:50:18;;;;;;;118.00;107.07;;;10.20;99.90;;;;;;5033428;28;20054;-78
2021/12/17 12:52:47;;;;;;;117.05;106.22;;;10.20;99.90;;;;;;5034045;28;20056;-76
2021/12/17 12:55:18;;;;;;;117.60;106.60;;;10.30;99.90;;;;;;5020978;28;20055;-76
2021/12/17 12:57:47;;;;;;;115.70;104.82;;;10.20;99.90;;;;;;4996631;28;20141;-75
2021/12/17 13:00:19;;;;;;;115.93;105.15;;;10.30;99.90;;;;;;5013392;28;20105;-77
2021/12/17 13:02:49;;;;;;;116.75;105.95;;;10.30;99.90;;;;;;5015134;28;20788;-78
2021/12/17 13:05:19;;;;;;;116.53;105.72;;;10.30;99.90;;;;;;5012602;28;20098;-77
2021/12/17 13:07:48;;;;;;;118.95;107.90;;;10.30;99.90;;;;;;5011437;28;20097;-76
2021/12/17 13:10:18;;;;;;;117.20;106.47;;;10.30;99.90;;;;;;5014599;28;20050;-77
2021/12/17 13:13:04;;;;;;;116.63;105.88;;;10.30;99.90;;;;;;5012968;28;20046;-77
2021/12/17 13:15:42;;;;;;;115.28;104.68;;;10.30;99.90;;;;;;5014103;28;20083;-78
2021/12/17 13:23:48;;;;;;;113.65;103.25;;;10.40;99.90;;;;;;5010164;28;20105;-77
2021/12/17 13:26:16;;;;;;;113.88;103.38;;;10.30;99.90;;;;;;5015045;28;20210;-77
2021/12/17 13:28:48;;;;;;;113.50;102.95;;;10.40;99.90;;;;;;5013260;28;20064;-77
2021/12/17 13:31:33;;;;;;;112.13;101.82;;;10.40;99.90;;;;;;5013452;28;20057;-77
2021/12/17 13:34:00;;;;;;;110.73;100.57;;;10.40;99.90;;;;;;5013191;28;20129;-76
2021/12/17 13:36:29;;;;;;;110.57;100.57;;;10.40;99.90;;;;;;5013455;28;20054;-77
2021/12/17 13:39:15;;;;;;;110.88;100.57;;;10.40;99.90;;;;;;5014918;28;20455;-77
2021/12/17 13:42:01;;;;;;;108.85;98.95;;;10.40;99.90;;;;;;5028190;28;20055;-79
2021/12/17 13:44:32;;;;;;;109.45;99.45;;;10.40;99.90;;;;;;5014377;28;20451;-81
2021/12/17 13:47:37;;;;;;;109.60;99.63;;;10.40;99.90;;;;;;5014679;28;20050;-81
2021/12/17 13:50:12;;;;;;;109.07;99.07;;;10.40;99.90;;;;;;5029770;28;20061;-80
2021/12/17 13:53:01;;;;;;;108.90;98.90;;;10.50;99.90;;;;;;5029337;28;20046;-80
2021/12/17 13:55:31;;;;;;;112.30;101.90;;;10.50;99.90;;;;;;5032609;28;20132;-80
2021/12/17 13:58:00;;;;;;;110.25;100.25;;;10.50;99.90;;;;;;5019674;28;20060;-80
2021/12/17 14:00:31;;;;;;;110.32;100.32;;;10.40;99.90;;;;;;5013539;28;20084;-81
2021/12/17 14:02:59;;;;;;;109.05;99.10;;;10.40;99.90;;;;;;5013352;28;20516;-81
2021/12/17 14:05:29;;;;;;;111.72;101.63;;;10.40;99.90;;;;;;5012705;28;20058;-80
2021/12/17 14:07:59;;;;;;;109.15;99.25;;;10.40;99.90;;;;;;4995886;28;20050;-79
2021/12/17 14:10:29;;;;;;;111.05;101.05;;;10.40;99.90;;;;;;5011551;28;20058;-79
2021/12/17 14:12:57;;;;;;;110.90;100.82;;;10.40;99.90;;;;;;5013326;28;20150;-78
2021/12/17 14:15:27;;;;;;;110.07;100.20;;;10.40;99.90;;;;;;4996656;28;20046;-78
2021/12/17 14:17:57;;;;;;;110.03;100.13;;;10.40;99.90;;;;;;5014356;28;20133;-77
2021/12/17 14:20:27;;;;;;;111.07;101.03;;;10.40;99.90;;;;;;5012837;28;20054;-78
2021/12/17 14:22:59;;;;;;;109.55;99.65;;;10.40;99.90;;;;;;5012909;28;20621;-76
2021/12/17 14:25:31;;;;;;;110.00;100.00;;;10.40;99.90;;;;;;5012732;28;20062;-77
2021/12/17 14:28:00;;;;;;;112.43;102.25;;;10.40;99.90;;;;;;5015622;28;20077;-78
2021/12/17 14:30:33;;;;;;;111.72;101.63;;;10.40;99.90;;;;;;5015453;28;20046;-81
2021/12/17 14:33:07;;;;;;;109.97;100.07;;;10.40;99.90;;;;;;5013452;28;20054;-77
2021/12/17 14:35:58;;;;;;;109.75;99.78;;;10.40;99.90;;;;;;5012171;28;20057;-78
2021/12/17 14:38:41;;;;;;;109.80;99.82;;;10.40;99.90;;;;;;5012879;28;20192;-80
2021/12/17 14:41:16;;;;;;;110.28;100.25;;;10.40;99.90;;;;;;4993545;28;20094;-80
2021/12/17 14:43:49;;;;;;;111.63;101.65;;;10.40;99.90;;;;;;5019381;28;20051;-77
2021/12/17 14:46:22;;;;;;;112.28;101.95;;;10.40;99.90;;;;;;5014118;28;20054;-78
2021/12/17 14:49:12;;;;;;;112.22;102.03;;;10.40;99.90;;;;;;5015126;28;20046;-77
2021/12/17 15:00:27;;;;;;;114.40;104.00;;;10.50;99.90;;;;;;4969294;28;20054;-78
2021/12/17 15:02:59;;;;;;;115.88;105.40;;;10.50;99.90;;;;;;5017754;28;21059;-79
2021/12/17 15:05:28;;;;;;;112.68;102.47;;;10.50;99.90;;;;;;5033049;28;20053;-77
2021/12/17 15:07:57;;;;;;;112.72;102.53;;;10.50;99.90;;;;;;5014311;28;20046;-78
2021/12/17 15:10:26;;;;;;;113.78;103.47;;;10.50;99.90;;;;;;5013209;28;20056;-80
2021/12/17 15:12:57;;;;;;;113.70;103.40;;;10.50;99.90;;;;;;5019422;28;20185;-80